createdAt,value
2022-10-23T00:00:21.755Z,11.27
2022-10-23T00:01:21.605Z,11.31
2022-10-23T00:02:21.578Z,11.13
2022-10-23T00:03:21.422Z,11.13
2022-10-23T00:04:21.335Z,11.27
2022-10-23T00:05:21.248Z,11.30
2022-10-23T00:06:21.155Z,11.33
2022-10-23T00:07:21.157Z,11.31
2022-10-23T00:08:20.983Z,11.36
2022-10-23T00:09:20.889Z,11.34
2022-10-23T00:10:20.828Z,11.38
2022-10-23T00:11:20.715Z,11.40
2022-10-23T00:12:20.622Z,11.40
2022-10-23T00:13:20.529Z,11.37
2022-10-23T00:14:20.447Z,11.45
2022-10-23T00:15:20.353Z,11.48
2022-10-23T00:16:20.264Z,11.51
2022-10-23T00:17:20.179Z,11.48
2022-10-23T00:18:20.082Z,11.46
2022-10-23T00:19:19.999Z,11.45
2022-10-23T00:20:19.934Z,11.49
2022-10-23T00:21:19.825Z,11.49
2022-10-23T00:22:19.728Z,11.49
2022-10-23T00:23:19.638Z,11.48
2022-10-23T00:24:19.565Z,11.55
2022-10-23T00:25:19.462Z,11.43
2022-10-23T00:26:19.371Z,11.55
2022-10-23T00:27:19.285Z,11.55
2022-10-23T00:28:19.208Z,11.43
2022-10-23T00:29:19.111Z,11.48
2022-10-23T00:30:19.022Z,11.49
2022-10-23T00:31:18.928Z,11.48
2022-10-23T00:32:18.866Z,11.46
2022-10-23T00:33:18.753Z,11.45
2022-10-23T00:34:18.662Z,11.49
2022-10-23T00:35:18.577Z,11.41
2022-10-23T00:36:18.483Z,11.43
2022-10-23T00:37:18.411Z,11.48
2022-10-23T00:38:18.328Z,11.45
2022-10-23T00:39:18.211Z,11.46
2022-10-23T00:40:18.129Z,11.45
2022-10-23T00:41:18.036Z,11.46
2022-10-23T00:42:17.948Z,11.51
2022-10-23T00:43:17.865Z,11.46
2022-10-23T00:44:17.769Z,11.48
2022-10-23T00:45:17.692Z,11.48
2022-10-23T00:46:17.593Z,11.46
2022-10-23T00:47:17.500Z,11.46
2022-10-23T00:48:17.415Z,11.41
2022-10-23T00:49:17.385Z,11.37
2022-10-23T00:50:17.238Z,11.43
2022-10-23T00:51:17.150Z,11.36
2022-10-23T00:52:17.057Z,11.31
2022-10-23T00:53:16.972Z,11.33
2022-10-23T00:54:23.835Z,11.40
2022-10-23T00:55:16.797Z,11.33
2022-10-23T00:56:16.698Z,11.34
2022-10-23T00:57:16.709Z,11.34
2022-10-23T00:58:16.527Z,11.31
2022-10-23T00:59:16.433Z,11.30
2022-10-23T01:00:16.346Z,11.31
2022-10-23T01:01:16.324Z,11.30
2022-10-23T01:02:16.253Z,11.27
2022-10-23T01:03:16.074Z,11.33
2022-10-23T01:04:15.991Z,11.30
2022-10-23T01:05:15.904Z,11.22
2022-10-23T01:06:15.814Z,11.22
2022-10-23T01:07:15.721Z,11.20
2022-10-23T01:08:15.634Z,11.23
2022-10-23T01:09:15.588Z,11.27
2022-10-23T01:10:15.454Z,11.33
2022-10-23T01:11:15.382Z,11.30
2022-10-23T01:12:15.274Z,11.25
2022-10-23T01:13:15.184Z,11.27
2022-10-23T01:14:15.126Z,11.28
2022-10-23T01:15:15.014Z,11.25
2022-10-23T01:16:14.922Z,11.25
2022-10-23T01:17:14.831Z,11.28
2022-10-23T01:18:14.771Z,11.28
2022-10-23T01:19:14.646Z,11.20
2022-10-23T01:20:14.566Z,11.23
2022-10-23T01:21:14.469Z,11.23
2022-10-23T01:22:14.461Z,11.28
2022-10-23T01:23:14.301Z,11.28
2022-10-23T01:24:14.206Z,11.22
2022-10-23T01:25:14.111Z,11.23
2022-10-23T01:26:14.055Z,11.27
2022-10-23T01:27:13.939Z,11.19
2022-10-23T01:28:13.851Z,11.18
2022-10-23T01:29:13.765Z,11.13
2022-10-23T01:30:13.674Z,11.15
2022-10-23T01:31:13.610Z,11.09
2022-10-23T01:32:13.494Z,11.04
2022-10-23T01:33:13.400Z,11.04
2022-10-23T01:34:13.351Z,11.08
2022-10-23T01:35:13.261Z,11.00
2022-10-23T01:36:13.146Z,10.97
2022-10-23T01:37:13.046Z,10.94
2022-10-23T01:38:12.957Z,11.00
2022-10-23T01:39:12.871Z,11.03
2022-10-23T01:40:12.785Z,11.00
2022-10-23T01:41:12.692Z,11.00
2022-10-23T01:42:12.605Z,10.94
2022-10-23T01:43:12.515Z,10.97
2022-10-23T01:44:12.428Z,10.93
2022-10-23T01:45:12.333Z,10.90
2022-10-23T01:46:12.246Z,10.94
2022-10-23T01:47:12.222Z,10.85
2022-10-23T01:48:12.094Z,10.90
2022-10-23T01:49:11.970Z,10.83
2022-10-23T01:50:11.885Z,10.90
2022-10-23T01:51:11.812Z,10.80
2022-10-23T01:52:11.712Z,10.80
2022-10-23T01:53:11.617Z,10.70
2022-10-23T01:54:11.535Z,10.73
2022-10-23T01:55:11.443Z,10.79
2022-10-23T01:56:11.347Z,10.72
2022-10-23T01:57:11.266Z,10.72
2022-10-23T01:58:11.172Z,10.70
2022-10-23T01:59:11.078Z,10.67
2022-10-23T02:00:10.997Z,10.67
2022-10-23T02:01:10.978Z,10.65
2022-10-23T02:02:11.012Z,10.68
2022-10-23T02:03:10.769Z,10.68
2022-10-23T02:04:10.642Z,10.62
2022-10-23T02:05:10.542Z,10.58
2022-10-23T02:06:10.459Z,10.60
2022-10-23T02:07:10.370Z,10.61
2022-10-23T02:08:10.301Z,10.60
2022-10-23T02:09:10.206Z,10.52
2022-10-23T02:10:10.104Z,10.45
2022-10-23T02:11:10.018Z,10.49
2022-10-23T02:12:09.913Z,10.55
2022-10-23T02:13:09.851Z,10.52
2022-10-23T02:14:09.742Z,10.58
2022-10-23T02:15:09.650Z,10.54
2022-10-23T02:16:09.555Z,10.54
2022-10-23T02:17:09.469Z,10.48
2022-10-23T02:18:09.379Z,10.43
2022-10-23T02:19:09.293Z,10.38
2022-10-23T02:20:09.201Z,10.43
2022-10-23T02:21:09.126Z,10.43
2022-10-23T02:22:09.019Z,10.43
2022-10-23T02:23:08.939Z,10.42
2022-10-23T02:24:08.841Z,10.41
2022-10-23T02:25:08.756Z,10.39
2022-10-23T02:26:08.670Z,10.41
2022-10-23T02:27:08.623Z,10.36
2022-10-23T02:28:08.481Z,10.38
2022-10-23T02:29:08.410Z,10.34
2022-10-23T02:30:08.306Z,10.36
2022-10-23T02:31:08.225Z,10.30
2022-10-23T02:32:08.127Z,10.27
2022-10-23T02:33:08.037Z,10.24
2022-10-23T02:34:07.959Z,10.24
2022-10-23T02:35:07.859Z,10.27
2022-10-23T02:36:07.779Z,10.18
2022-10-23T02:37:07.777Z,10.21
2022-10-23T02:38:07.586Z,10.28
2022-10-23T02:39:07.512Z,10.21
2022-10-23T02:40:07.412Z,10.27
2022-10-23T02:41:07.324Z,10.20
2022-10-23T02:42:07.225Z,10.18
2022-10-23T02:43:07.142Z,10.14
2022-10-23T02:44:07.052Z,10.20
2022-10-23T02:45:06.955Z,10.24
2022-10-23T02:46:06.874Z,10.20
2022-10-23T02:47:06.777Z,10.23
2022-10-23T02:48:06.706Z,10.20
2022-10-23T02:49:06.637Z,10.18
2022-10-23T02:50:06.506Z,10.12
2022-10-23T02:51:06.424Z,10.03
2022-10-23T02:52:06.337Z,10.06
2022-10-23T02:53:06.241Z,9.99
2022-10-23T02:54:06.151Z,10.02
2022-10-23T02:55:06.067Z,10.09
2022-10-23T02:56:05.976Z,10.05
2022-10-23T02:57:05.895Z,10.02
2022-10-23T02:58:05.797Z,9.90
2022-10-23T02:59:05.704Z,9.98
2022-10-23T03:00:05.621Z,10.03
2022-10-23T03:01:05.591Z,9.99
2022-10-23T03:02:05.609Z,10.01
2022-10-23T03:03:05.342Z,9.84
2022-10-23T03:04:05.250Z,9.99
2022-10-23T03:05:05.164Z,10.02
2022-10-23T03:06:05.072Z,10.02
2022-10-23T03:07:04.986Z,10.01
2022-10-23T03:08:04.895Z,9.98
2022-10-23T03:09:04.801Z,10.02
2022-10-23T03:10:04.714Z,9.98
2022-10-23T03:11:04.621Z,9.93
2022-10-23T03:12:04.538Z,9.96
2022-10-23T03:13:04.442Z,9.96
2022-10-23T03:14:04.355Z,9.83
2022-10-23T03:15:04.267Z,9.84
2022-10-23T03:16:04.201Z,9.87
2022-10-23T03:17:04.085Z,9.87
2022-10-23T03:18:03.990Z,9.91
2022-10-23T03:19:03.969Z,9.88
2022-10-23T03:20:03.814Z,9.88
2022-10-23T03:21:03.725Z,9.85
2022-10-23T03:22:03.631Z,9.90
2022-10-23T03:23:03.546Z,9.80
2022-10-23T03:24:03.450Z,9.91
2022-10-23T03:25:03.377Z,9.80
2022-10-23T03:26:03.276Z,9.78
2022-10-23T03:27:03.246Z,9.67
2022-10-23T03:28:03.099Z,9.72
2022-10-23T03:29:03.000Z,9.66
2022-10-23T03:30:02.917Z,9.83
2022-10-23T03:31:02.823Z,9.78
2022-10-23T03:32:02.733Z,9.66
2022-10-23T03:33:02.646Z,9.67
2022-10-23T03:34:04.154Z,9.78
2022-10-23T03:35:02.462Z,9.73
2022-10-23T03:36:02.376Z,9.63
2022-10-23T03:37:02.285Z,9.72
2022-10-23T03:38:02.185Z,9.72
2022-10-23T03:39:02.105Z,9.65
2022-10-23T03:40:02.012Z,9.66
2022-10-23T03:41:01.920Z,9.70
2022-10-23T03:42:01.834Z,9.69
2022-10-23T03:43:01.739Z,9.66
2022-10-23T03:44:01.806Z,9.70
2022-10-23T03:45:01.559Z,9.72
2022-10-23T03:46:01.476Z,9.66
2022-10-23T03:47:01.379Z,9.59
2022-10-23T03:48:01.289Z,9.65
2022-10-23T03:49:01.199Z,9.62
2022-10-23T03:50:01.116Z,9.62
2022-10-23T03:51:01.062Z,9.63
2022-10-23T03:52:00.928Z,9.66
2022-10-23T03:53:00.834Z,9.63
2022-10-23T03:54:00.752Z,9.66
2022-10-23T03:55:00.659Z,9.57
2022-10-23T03:56:00.568Z,9.57
2022-10-23T03:57:00.472Z,9.54
2022-10-23T03:58:00.421Z,9.51
2022-10-23T03:59:00.300Z,9.41
2022-10-23T04:00:00.213Z,9.37
2022-10-23T04:01:00.209Z,9.36
2022-10-23T04:02:00.248Z,9.27
2022-10-23T04:02:59.937Z,9.36
2022-10-23T04:03:59.850Z,9.30
2022-10-23T04:04:59.754Z,9.30
2022-10-23T04:05:59.674Z,9.29
2022-10-23T04:06:59.622Z,9.27
2022-10-23T04:07:59.489Z,9.27
2022-10-23T04:08:59.446Z,9.32
2022-10-23T04:09:59.304Z,9.29
2022-10-23T04:10:59.211Z,9.18
2022-10-23T04:11:59.117Z,9.26
2022-10-23T04:12:59.033Z,9.29
2022-10-23T04:13:58.950Z,9.27
2022-10-23T04:14:58.847Z,9.27
2022-10-23T04:15:58.761Z,9.26
2022-10-23T04:16:58.669Z,9.24
2022-10-23T04:17:58.579Z,9.23
2022-10-23T04:18:58.497Z,9.26
2022-10-23T04:19:58.403Z,9.30
2022-10-23T04:20:58.312Z,9.30
2022-10-23T04:21:58.221Z,9.22
2022-10-23T04:22:58.136Z,9.29
2022-10-23T04:23:58.035Z,9.26
2022-10-23T04:24:57.949Z,9.24
2022-10-23T04:25:57.852Z,9.29
2022-10-23T04:26:57.782Z,9.22
2022-10-23T04:27:57.685Z,9.29
2022-10-23T04:28:57.582Z,9.19
2022-10-23T04:29:59.105Z,9.16
2022-10-23T04:30:57.409Z,9.19
2022-10-23T04:31:57.313Z,9.14
2022-10-23T04:32:57.220Z,9.18
2022-10-23T04:33:57.154Z,9.22
2022-10-23T04:34:57.075Z,9.19
2022-10-23T04:35:56.954Z,9.09
2022-10-23T04:36:56.864Z,9.23
2022-10-23T04:37:56.772Z,9.11
2022-10-23T04:38:56.687Z,9.08
2022-10-23T04:39:56.597Z,9.16
2022-10-23T04:40:56.498Z,9.03
2022-10-23T04:41:56.406Z,9.03
2022-10-23T04:42:56.318Z,9.03
2022-10-23T04:43:56.228Z,9.06
2022-10-23T04:44:56.138Z,8.98
2022-10-23T04:45:56.043Z,9.03
2022-10-23T04:46:55.970Z,8.98
2022-10-23T04:47:55.864Z,8.93
2022-10-23T04:48:55.773Z,9.04
2022-10-23T04:49:55.690Z,9.01
2022-10-23T04:50:55.603Z,9.09
2022-10-23T04:51:55.521Z,8.95
2022-10-23T04:52:55.418Z,8.95
2022-10-23T04:53:55.321Z,8.98
2022-10-23T04:54:55.244Z,9.03
2022-10-23T04:55:55.172Z,9.08
2022-10-23T04:56:55.068Z,9.03
2022-10-23T04:57:54.966Z,8.93
2022-10-23T04:58:54.913Z,9.01
2022-10-23T04:59:54.777Z,8.89
2022-10-23T05:00:54.751Z,8.96
2022-10-23T05:01:54.611Z,8.99
2022-10-23T05:02:54.509Z,9.03
2022-10-23T05:03:54.418Z,8.96
2022-10-23T05:04:54.327Z,8.98
2022-10-23T05:05:54.234Z,9.06
2022-10-23T05:06:54.150Z,9.12
2022-10-23T05:07:54.054Z,9.04
2022-10-23T05:08:53.962Z,9.09
2022-10-23T05:09:53.871Z,9.15
2022-10-23T05:10:53.781Z,9.03
2022-10-23T05:11:53.685Z,9.04
2022-10-23T05:12:53.598Z,8.99
2022-10-23T05:13:53.515Z,8.89
2022-10-23T05:14:53.421Z,8.93
2022-10-23T05:15:53.335Z,8.90
2022-10-23T05:16:53.243Z,8.95
2022-10-23T05:17:53.144Z,8.99
2022-10-23T05:18:53.060Z,8.98
2022-10-23T05:19:53.002Z,9.03
2022-10-23T05:20:52.879Z,9.09
2022-10-23T05:21:52.783Z,9.03
2022-10-23T05:22:52.740Z,9.09
2022-10-23T05:23:52.620Z,9.06
2022-10-23T05:24:52.513Z,9.06
2022-10-23T05:25:52.424Z,9.01
2022-10-23T05:26:52.334Z,9.03
2022-10-23T05:27:52.239Z,9.04
2022-10-23T05:28:52.155Z,8.99
2022-10-23T05:29:52.054Z,9.08
2022-10-23T05:30:51.978Z,9.06
2022-10-23T05:31:51.914Z,9.11
2022-10-23T05:32:51.800Z,9.08
2022-10-23T05:33:51.689Z,9.03
2022-10-23T05:34:51.603Z,8.92
2022-10-23T05:35:51.523Z,8.98
2022-10-23T05:36:51.427Z,8.96
2022-10-23T05:37:51.341Z,8.98
2022-10-23T05:38:51.244Z,8.85
2022-10-23T05:39:51.159Z,8.90
2022-10-23T05:40:51.073Z,8.93
2022-10-23T05:41:50.979Z,8.90
2022-10-23T05:42:50.884Z,9.04
2022-10-23T05:43:50.807Z,8.99
2022-10-23T05:44:50.694Z,8.95
2022-10-23T05:45:50.609Z,8.93
2022-10-23T05:46:50.551Z,8.98
2022-10-23T05:47:50.424Z,8.98
2022-10-23T05:48:50.376Z,9.01
2022-10-23T05:49:50.246Z,8.99
2022-10-23T05:50:50.155Z,9.03
2022-10-23T05:51:50.079Z,9.09
2022-10-23T05:52:49.969Z,9.12
2022-10-23T05:53:49.889Z,9.04
2022-10-23T05:54:49.788Z,9.12
2022-10-23T05:55:49.702Z,9.08
2022-10-23T05:56:49.603Z,9.11
2022-10-23T05:57:49.543Z,9.03
2022-10-23T05:58:49.434Z,9.09
2022-10-23T05:59:49.337Z,9.12
2022-10-23T06:00:49.265Z,9.16
2022-10-23T06:01:49.246Z,9.15
2022-10-23T06:02:49.057Z,9.22
2022-10-23T06:03:48.968Z,9.19
2022-10-23T06:04:48.881Z,9.26
2022-10-23T06:05:48.814Z,9.29
2022-10-23T06:06:48.705Z,9.33
2022-10-23T06:07:48.636Z,9.22
2022-10-23T06:08:48.519Z,9.32
2022-10-23T06:09:48.422Z,9.33
2022-10-23T06:10:48.361Z,9.30
2022-10-23T06:11:48.311Z,9.33
2022-10-23T06:12:48.153Z,9.33
2022-10-23T06:13:48.118Z,9.32
2022-10-23T06:14:47.970Z,9.29
2022-10-23T06:15:47.888Z,9.26
2022-10-23T06:16:47.795Z,9.34
2022-10-23T06:17:47.709Z,9.26
2022-10-23T06:18:47.615Z,9.26
2022-10-23T06:19:47.520Z,9.32
2022-10-23T06:20:47.430Z,9.29
2022-10-23T06:21:47.367Z,9.30
2022-10-23T06:22:47.256Z,9.30
2022-10-23T06:23:47.157Z,9.41
2022-10-23T06:24:47.065Z,9.37
2022-10-23T06:25:46.976Z,9.40
2022-10-23T06:26:46.903Z,9.40
2022-10-23T06:27:46.830Z,9.34
2022-10-23T06:28:46.699Z,9.48
2022-10-23T06:29:46.611Z,9.55
2022-10-23T06:30:46.523Z,9.57
2022-10-23T06:31:46.448Z,9.66
2022-10-23T06:32:46.478Z,9.75
2022-10-23T06:33:46.247Z,9.69
2022-10-23T06:34:46.157Z,9.78
2022-10-23T06:35:46.063Z,9.80
2022-10-23T06:36:45.973Z,9.83
2022-10-23T06:37:45.882Z,9.87
2022-10-23T06:38:45.867Z,9.90
2022-10-23T06:39:45.705Z,9.90
2022-10-23T06:40:45.632Z,9.88
2022-10-23T06:41:45.522Z,9.99
2022-10-23T06:42:45.531Z,9.98
2022-10-23T06:43:45.345Z,10.02
2022-10-23T06:44:45.253Z,10.02
2022-10-23T06:45:45.159Z,10.06
2022-10-23T06:46:45.075Z,10.10
2022-10-23T06:47:45.325Z,10.14
2022-10-23T06:48:44.887Z,10.16
2022-10-23T06:49:44.795Z,10.12
2022-10-23T06:50:44.708Z,10.08
2022-10-23T06:51:44.635Z,10.20
2022-10-23T06:52:48.045Z,10.24
2022-10-23T06:53:44.440Z,10.30
2022-10-23T06:54:44.361Z,10.34
2022-10-23T06:55:44.251Z,10.28
2022-10-23T06:56:44.165Z,10.36
2022-10-23T06:57:44.421Z,10.42
2022-10-23T06:58:43.983Z,10.43
2022-10-23T06:59:43.926Z,10.43
2022-10-23T07:00:43.869Z,10.48
2022-10-23T07:01:43.871Z,10.60
2022-10-23T07:02:43.802Z,10.64
2022-10-23T07:03:43.539Z,10.70
2022-10-23T07:04:43.435Z,10.70
2022-10-23T07:05:43.340Z,10.76
2022-10-23T07:06:43.265Z,10.75
2022-10-23T07:07:43.212Z,10.79
2022-10-23T07:08:43.073Z,10.70
2022-10-23T07:09:42.989Z,10.85
2022-10-23T07:10:42.909Z,10.94
2022-10-23T07:11:42.818Z,10.94
2022-10-23T07:12:42.908Z,10.97
2022-10-23T07:13:42.630Z,11.00
2022-10-23T07:14:42.533Z,11.00
2022-10-23T07:15:42.451Z,11.13
2022-10-23T07:16:42.358Z,11.09
2022-10-23T07:17:42.268Z,11.20
2022-10-23T07:18:42.201Z,11.23
2022-10-23T07:19:42.087Z,11.23
2022-10-23T07:20:42.005Z,11.37
2022-10-23T07:21:41.912Z,11.31
2022-10-23T07:22:42.226Z,11.45
2022-10-23T07:23:41.723Z,11.43
2022-10-23T07:24:41.640Z,11.49
2022-10-23T07:25:41.545Z,11.58
2022-10-23T07:26:41.591Z,11.61
2022-10-23T07:27:41.628Z,11.59
2022-10-23T07:28:41.279Z,11.71
2022-10-23T07:29:41.187Z,11.96
2022-10-23T07:30:41.097Z,12.17
2022-10-23T07:31:41.008Z,12.47
2022-10-23T07:32:40.950Z,12.54
2022-10-23T07:33:40.830Z,12.72
2022-10-23T07:34:40.738Z,12.96
2022-10-23T07:35:40.650Z,12.98
2022-10-23T07:36:40.580Z,13.05
2022-10-23T07:37:40.709Z,13.09
2022-10-23T07:38:40.382Z,13.19
2022-10-23T07:39:40.295Z,13.19
2022-10-23T07:40:40.203Z,13.27
2022-10-23T07:41:40.118Z,13.30
2022-10-23T07:42:40.044Z,13.36
2022-10-23T07:43:39.935Z,13.27
2022-10-23T07:44:39.843Z,13.38
2022-10-23T07:45:39.756Z,13.55
2022-10-23T07:46:39.669Z,13.54
2022-10-23T07:47:39.711Z,13.71
2022-10-23T07:48:39.491Z,13.76
2022-10-23T07:49:39.399Z,13.76
2022-10-23T07:50:39.327Z,13.94
2022-10-23T07:51:39.225Z,13.93
2022-10-23T07:52:39.164Z,14.11
2022-10-23T07:53:39.046Z,14.15
2022-10-23T07:54:38.972Z,14.22
2022-10-23T07:55:38.870Z,14.27
2022-10-23T07:56:38.775Z,14.19
2022-10-23T07:57:38.689Z,14.27
2022-10-23T07:58:38.603Z,14.37
2022-10-23T07:59:38.508Z,14.38
2022-10-23T08:00:38.422Z,14.52
2022-10-23T08:01:38.445Z,14.56
2022-10-23T08:02:38.266Z,14.63
2022-10-23T08:03:38.155Z,14.70
2022-10-23T08:04:38.067Z,14.77
2022-10-23T08:05:37.982Z,14.83
2022-10-23T08:06:37.889Z,14.82
2022-10-23T08:07:37.801Z,14.92
2022-10-23T08:08:37.743Z,14.85
2022-10-23T08:09:37.643Z,14.93
2022-10-23T08:10:37.540Z,15.04
2022-10-23T08:11:37.453Z,15.05
2022-10-23T08:12:37.362Z,15.10
2022-10-23T08:13:37.288Z,15.10
2022-10-23T08:14:37.189Z,15.12
2022-10-23T08:15:37.097Z,15.19
2022-10-23T08:16:37.004Z,15.19
2022-10-23T08:17:36.952Z,15.23
2022-10-23T08:18:36.876Z,15.20
2022-10-23T08:19:36.746Z,15.26
2022-10-23T08:20:36.661Z,15.26
2022-10-23T08:21:36.570Z,15.30
2022-10-23T08:22:36.479Z,15.36
2022-10-23T08:23:36.393Z,15.43
2022-10-23T08:24:36.309Z,15.43
2022-10-23T08:25:36.232Z,15.45
2022-10-23T08:26:36.135Z,15.47
2022-10-23T08:27:36.055Z,15.58
2022-10-23T08:28:35.991Z,15.50
2022-10-23T08:29:35.874Z,15.59
2022-10-23T08:30:35.797Z,15.62
2022-10-23T08:31:35.693Z,15.51
2022-10-23T08:32:35.608Z,15.59
2022-10-23T08:33:35.607Z,15.63
2022-10-23T08:34:35.437Z,15.60
2022-10-23T08:35:35.345Z,15.59
2022-10-23T08:36:35.257Z,15.65
2022-10-23T08:37:35.178Z,15.73
2022-10-23T08:38:35.086Z,15.85
2022-10-23T08:39:35.008Z,15.83
2022-10-23T08:40:34.905Z,15.90
2022-10-23T08:41:34.821Z,15.90
2022-10-23T08:42:34.742Z,15.95
2022-10-23T08:43:34.646Z,16.00
2022-10-23T08:44:34.560Z,16.02
2022-10-23T08:45:34.479Z,16.13
2022-10-23T08:46:34.384Z,16.17
2022-10-23T08:47:34.319Z,16.13
2022-10-23T08:48:34.217Z,16.24
2022-10-23T08:49:34.124Z,16.24
2022-10-23T08:50:34.042Z,16.29
2022-10-23T08:51:33.955Z,16.37
2022-10-23T08:52:33.952Z,16.36
2022-10-23T08:53:33.780Z,16.44
2022-10-23T08:54:33.736Z,16.43
2022-10-23T08:55:33.602Z,16.46
2022-10-23T08:56:33.532Z,16.59
2022-10-23T08:57:33.469Z,16.73
2022-10-23T08:58:33.436Z,16.72
2022-10-23T08:59:33.377Z,16.95
2022-10-23T09:00:33.172Z,16.97
2022-10-23T09:01:33.197Z,17.12
2022-10-23T09:02:33.007Z,17.25
2022-10-23T09:03:32.912Z,17.39
2022-10-23T09:04:32.829Z,17.52
2022-10-23T09:05:32.741Z,17.56
2022-10-23T09:06:32.655Z,17.65
2022-10-23T09:07:32.565Z,17.73
2022-10-23T09:08:32.478Z,17.81
2022-10-23T09:09:32.443Z,17.86
2022-10-23T09:10:32.316Z,17.93
2022-10-23T09:11:32.236Z,17.96
2022-10-23T09:12:32.143Z,18.09
2022-10-23T09:13:32.050Z,18.17
2022-10-23T09:14:31.956Z,18.20
2022-10-23T09:15:31.879Z,18.23
2022-10-23T09:16:31.804Z,18.28
2022-10-23T09:17:31.716Z,18.30
2022-10-23T09:18:31.624Z,18.42
2022-10-23T09:19:31.548Z,18.41
2022-10-23T09:20:31.449Z,18.54
2022-10-23T09:21:31.367Z,18.58
2022-10-23T09:22:31.279Z,18.64
2022-10-23T09:23:31.200Z,18.64
2022-10-23T09:24:31.114Z,18.76
2022-10-23T09:25:31.022Z,18.78
2022-10-23T09:26:30.933Z,18.78
2022-10-23T09:27:30.846Z,18.81
2022-10-23T09:28:30.765Z,18.78
2022-10-23T09:29:30.677Z,18.83
2022-10-23T09:30:30.593Z,18.75
2022-10-23T09:31:30.510Z,18.93
2022-10-23T09:32:30.416Z,18.93
2022-10-23T09:33:30.329Z,18.91
2022-10-23T09:34:30.250Z,19.04
2022-10-23T09:35:30.162Z,19.04
2022-10-23T09:36:30.079Z,18.98
2022-10-23T09:37:30.005Z,19.08
2022-10-23T09:38:29.905Z,19.05
2022-10-23T09:39:29.850Z,19.09
2022-10-23T09:40:29.738Z,19.13
2022-10-23T09:41:29.671Z,19.12
2022-10-23T09:42:29.571Z,19.13
2022-10-23T09:43:29.486Z,19.09
2022-10-23T09:44:29.394Z,19.19
2022-10-23T09:45:29.319Z,19.24
2022-10-23T09:46:29.228Z,19.20
2022-10-23T09:47:29.140Z,19.23
2022-10-23T09:48:29.064Z,19.27
2022-10-23T09:49:28.971Z,19.23
2022-10-23T09:50:28.883Z,19.31
2022-10-23T09:51:28.818Z,19.24
2022-10-23T09:52:28.715Z,19.27
2022-10-23T09:53:28.625Z,19.32
2022-10-23T09:54:28.558Z,19.38
2022-10-23T09:55:28.471Z,19.26
2022-10-23T09:56:28.378Z,19.27
2022-10-23T09:57:28.295Z,19.35
2022-10-23T09:58:28.214Z,19.39
2022-10-23T09:59:28.119Z,19.38
2022-10-23T10:00:28.039Z,19.41
2022-10-23T10:01:28.036Z,19.42
2022-10-23T10:02:27.863Z,19.42
2022-10-23T10:03:27.787Z,19.39
2022-10-23T10:04:27.693Z,19.39
2022-10-23T10:05:27.611Z,19.42
2022-10-23T10:06:27.611Z,19.44
2022-10-23T10:07:27.464Z,19.45
2022-10-23T10:08:27.358Z,19.38
2022-10-23T10:09:27.285Z,19.41
2022-10-23T10:10:27.222Z,19.42
2022-10-23T10:11:27.115Z,19.42
2022-10-23T10:12:27.014Z,19.38
2022-10-23T10:13:26.932Z,19.38
2022-10-23T10:14:26.851Z,19.49
2022-10-23T10:15:26.763Z,19.45
2022-10-23T10:16:26.712Z,19.49
2022-10-23T10:17:26.602Z,19.49
2022-10-23T10:18:26.530Z,19.52
2022-10-23T10:19:26.424Z,19.53
2022-10-23T10:20:26.338Z,19.54
2022-10-23T10:21:26.255Z,19.57
2022-10-23T10:22:26.170Z,19.50
2022-10-23T10:23:26.086Z,19.50
2022-10-23T10:24:26.002Z,19.60
2022-10-23T10:25:25.913Z,19.59
2022-10-23T10:26:25.880Z,19.56
2022-10-23T10:27:25.749Z,19.52
2022-10-23T10:28:25.663Z,19.57
2022-10-23T10:29:25.574Z,19.56
2022-10-23T10:30:25.491Z,19.57
2022-10-23T10:31:25.412Z,19.57
2022-10-23T10:32:25.326Z,19.57
2022-10-23T10:33:25.258Z,19.62
2022-10-23T10:34:25.149Z,19.74
2022-10-23T10:35:25.077Z,19.74
2022-10-23T10:37:24.906Z,19.82
2022-10-23T10:38:24.848Z,19.93
2022-10-23T10:39:24.732Z,19.92
2022-10-23T10:40:24.652Z,19.94
2022-10-23T10:41:24.571Z,20.02
2022-10-23T10:42:24.482Z,20.05
2022-10-23T10:43:24.400Z,19.97
2022-10-23T10:44:24.309Z,20.04
2022-10-23T10:45:24.221Z,20.09
2022-10-23T10:46:24.150Z,20.17
2022-10-23T10:47:24.064Z,20.18
2022-10-23T10:48:24.000Z,20.18
2022-10-23T10:49:23.903Z,20.22
2022-10-23T10:50:23.817Z,20.26
2022-10-23T10:51:23.718Z,20.25
2022-10-23T10:52:23.638Z,20.30
2022-10-23T10:53:23.567Z,20.33
2022-10-23T10:54:23.469Z,20.27
2022-10-23T10:55:23.391Z,20.34
2022-10-23T10:56:23.325Z,20.41
2022-10-23T10:57:23.217Z,20.49
2022-10-23T10:58:23.141Z,20.49
2022-10-23T10:59:23.052Z,20.50
2022-10-23T11:00:22.965Z,20.46
2022-10-23T11:01:23.018Z,20.58
2022-10-23T11:02:22.839Z,20.68
2022-10-23T11:03:22.708Z,20.61
2022-10-23T11:04:22.631Z,20.60
2022-10-23T11:05:22.546Z,20.56
2022-10-23T11:06:22.486Z,20.65
2022-10-23T11:07:22.376Z,20.71
2022-10-23T11:08:22.296Z,20.74
2022-10-23T11:09:22.213Z,20.70
2022-10-23T11:10:22.129Z,20.77
2022-10-23T11:11:22.043Z,20.74
2022-10-23T11:12:21.966Z,20.74
2022-10-23T11:13:21.878Z,20.80
2022-10-23T11:14:21.794Z,20.88
2022-10-23T11:15:21.710Z,20.92
2022-10-23T11:16:21.626Z,20.89
2022-10-23T11:17:21.536Z,20.92
2022-10-23T11:18:21.455Z,20.95
2022-10-23T11:19:21.379Z,21.00
2022-10-23T11:20:21.290Z,20.97
2022-10-23T11:21:21.204Z,21.05
2022-10-23T11:22:21.134Z,21.04
2022-10-23T11:23:21.034Z,21.10
2022-10-23T11:24:20.954Z,21.19
2022-10-23T11:25:20.868Z,21.08
2022-10-23T11:26:20.795Z,21.18
2022-10-23T11:27:20.704Z,21.20
2022-10-23T11:28:20.622Z,21.11
2022-10-23T11:29:20.542Z,21.26
2022-10-23T11:30:20.450Z,21.34
2022-10-23T11:31:20.368Z,21.29
2022-10-23T11:32:20.354Z,21.37
2022-10-23T11:33:20.216Z,21.28
2022-10-23T11:34:20.121Z,21.32
2022-10-23T11:35:20.037Z,21.38
2022-10-23T11:36:19.959Z,21.40
2022-10-23T11:37:19.870Z,21.41
2022-10-23T11:38:19.785Z,21.41
2022-10-23T11:39:19.705Z,21.41
2022-10-23T11:40:19.619Z,21.43
2022-10-23T11:41:22.270Z,21.41
2022-10-23T11:42:19.470Z,21.41
2022-10-23T11:43:19.375Z,21.43
2022-10-23T11:44:19.292Z,21.43
2022-10-23T11:45:19.205Z,21.40
2022-10-23T11:46:19.121Z,21.45
2022-10-23T11:47:19.037Z,21.43
2022-10-23T11:48:18.972Z,21.41
2022-10-23T11:49:18.888Z,21.37
2022-10-23T11:50:18.792Z,21.43
2022-10-23T11:51:18.715Z,21.41
2022-10-23T11:52:18.645Z,21.41
2022-10-23T11:53:18.902Z,21.44
2022-10-23T11:54:18.481Z,21.47
2022-10-23T11:55:18.420Z,21.51
2022-10-23T11:56:18.292Z,21.43
2022-10-23T11:57:18.243Z,21.34
2022-10-23T11:58:18.134Z,21.40
2022-10-23T11:59:18.043Z,21.28
2022-10-23T12:00:17.967Z,21.28
2022-10-23T12:01:17.934Z,21.30
2022-10-23T12:02:17.835Z,21.28
2022-10-23T12:03:17.733Z,21.34
2022-10-23T12:04:17.634Z,21.37
2022-10-23T12:05:17.541Z,21.35
2022-10-23T12:06:17.465Z,21.30
2022-10-23T12:07:17.374Z,21.32
2022-10-23T12:08:17.319Z,21.35
2022-10-23T12:09:17.213Z,21.35
2022-10-23T12:10:17.131Z,21.28
2022-10-23T12:11:17.045Z,21.35
2022-10-23T12:12:16.993Z,21.29
2022-10-23T12:13:16.878Z,21.26
2022-10-23T12:14:16.817Z,21.34
2022-10-23T12:15:16.714Z,21.35
2022-10-23T12:16:16.639Z,21.30
2022-10-23T12:17:16.547Z,21.32
2022-10-23T12:18:16.481Z,21.35
2022-10-23T12:19:16.403Z,21.35
2022-10-23T12:20:16.310Z,21.30
2022-10-23T12:21:16.222Z,21.35
2022-10-23T12:22:16.140Z,21.40
2022-10-23T12:23:16.077Z,21.43
2022-10-23T12:24:15.972Z,21.45
2022-10-23T12:25:15.889Z,21.44
2022-10-23T12:26:15.803Z,21.37
2022-10-23T12:27:15.716Z,21.32
2022-10-23T12:28:15.643Z,21.37
2022-10-23T12:29:15.563Z,21.41
2022-10-23T12:30:15.471Z,21.41
2022-10-23T12:31:15.453Z,21.45
2022-10-23T12:32:15.330Z,21.41
2022-10-23T12:33:15.232Z,21.35
2022-10-23T12:34:15.145Z,21.30
2022-10-23T12:35:15.062Z,21.34
2022-10-23T12:36:14.971Z,21.32
2022-10-23T12:37:14.884Z,21.34
2022-10-23T12:38:14.814Z,21.35
2022-10-23T12:39:14.775Z,21.35
2022-10-23T12:40:14.640Z,21.37
2022-10-23T12:41:14.562Z,21.34
2022-10-23T12:42:14.479Z,21.35
2022-10-23T12:43:14.394Z,21.30
2022-10-23T12:44:14.316Z,21.37
2022-10-23T12:45:14.250Z,21.30
2022-10-23T12:46:16.905Z,21.37
2022-10-23T21:28:22.476Z,16.37
2022-10-23T21:29:22.272Z,16.33
2022-10-23T21:30:22.346Z,16.26
2022-10-23T21:31:22.231Z,16.24
2022-10-23T21:32:21.990Z,16.22
2022-10-23T21:33:21.948Z,16.22
2022-10-23T21:34:21.902Z,16.18
2022-10-23T21:35:23.434Z,16.22
2022-10-23T21:36:21.681Z,16.18
2022-10-23T21:37:21.553Z,16.24
2022-10-23T21:38:21.471Z,16.16
2022-10-23T21:39:21.381Z,16.17
2022-10-23T21:40:21.341Z,16.13